Lake Worth, Florida
Current Conditions -  °F | °C
As of 10:53 PM on Monday 20 Oct 2014 (Local Time) from KPBI Reporting Station
Broken Clouds Broken Clouds  
Wind Chill: 79°   Ceiling: 7000
Heat Index: 81°   Visibility: 10mi
Dew Point: 67°   Wind: 6mph
Humidity: 66%   Direction: 140°SE
Pressure: 29.98"   Gusts: NA
Location:  26.62°N, 80.06°W
Report Text: KPBI 210253Z 14005KT 10SM FEW035 BKN070 26/19 A2998 RMK AO2 SLP150 T02610194 51006
Loading
Personal Weather Stations






























Interactive Weather Map
Tropical Storm Tracking
New forecast layout! Learn more

10-Day Weather Forecast

Advertisements
Track Severe Weather on mobile